createdAt,value
2023-05-07T00:02:23.789Z,3.60
2023-05-07T00:12:32.473Z,4.50
2023-05-07T00:22:38.701Z,5.20
2023-05-07T00:32:46.631Z,4.60
2023-05-07T00:42:57.742Z,4.10
2023-05-07T00:53:04.629Z,2.80
2023-05-07T01:03:10.608Z,3.60
2023-05-07T01:13:17.878Z,3.30
2023-05-07T01:23:24.395Z,3.50
2023-05-07T01:33:34.106Z,3.50
2023-05-07T01:43:39.971Z,3.20
2023-05-07T01:53:46.796Z,4.20
2023-05-07T02:03:52.677Z,5.80
2023-05-07T02:13:58.610Z,3.50
2023-05-07T02:24:04.414Z,3.60
2023-05-07T02:34:10.220Z,3.80
2023-05-07T02:44:15.919Z,3.60
2023-05-07T02:54:21.678Z,2.30
2023-05-07T03:04:27.477Z,2.70
2023-05-07T03:14:33.223Z,4.20
2023-05-07T03:24:38.861Z,3.30
2023-05-07T03:34:44.626Z,3.80
2023-05-07T03:44:50.303Z,3.80
2023-05-07T03:54:56.025Z,4.10
2023-05-07T04:05:01.829Z,4.70
2023-05-07T04:15:09.181Z,3.30
2023-05-07T04:35:19.544Z,4.00
2023-05-07T04:45:25.253Z,3.10
2023-05-07T04:55:30.744Z,2.30
2023-05-07T05:05:36.834Z,3.20
2023-05-07T05:15:42.555Z,2.60
2023-05-07T05:25:48.465Z,2.40
2023-05-07T05:35:55.482Z,2.90
2023-05-07T05:46:01.884Z,3.90
2023-05-07T05:56:09.229Z,2.70
2023-05-07T06:06:15.588Z,3.00
2023-05-07T06:16:21.219Z,2.70
2023-05-07T06:26:26.892Z,2.70
2023-05-07T06:36:32.678Z,3.60
2023-05-07T06:46:38.269Z,3.00
2023-05-07T06:56:43.953Z,2.70
2023-05-07T07:06:50.584Z,2.80
2023-05-07T07:16:56.406Z,3.50
2023-05-07T07:27:02.099Z,2.10
2023-05-07T07:37:07.743Z,2.20
2023-05-07T07:47:13.524Z,2.40
2023-05-07T07:57:19.390Z,2.30
2023-05-07T08:07:25.062Z,2.70
2023-05-07T08:17:30.751Z,3.30
2023-05-07T08:27:36.411Z,3.70
2023-05-07T08:37:42.104Z,2.00
2023-05-07T08:47:49.138Z,2.30
2023-05-07T08:57:54.982Z,4.50
2023-05-07T09:08:04.021Z,3.80
2023-05-07T09:18:09.937Z,1.70
2023-05-07T09:28:15.798Z,2.50
2023-05-07T09:38:23.393Z,2.30
2023-05-07T09:48:29.687Z,1.90
2023-05-07T09:58:38.942Z,2.50
2023-05-07T10:08:46.334Z,3.60
2023-05-07T10:18:53.859Z,2.00
2023-05-07T10:29:03.952Z,2.50
2023-05-07T10:39:09.883Z,3.80
2023-05-07T10:49:16.686Z,3.40
2023-05-07T10:59:44.880Z,3.40
2023-05-07T11:10:02.534Z,2.50
2023-05-07T11:20:10.463Z,3.00
2023-05-07T11:30:20.651Z,3.10
2023-05-07T11:40:26.480Z,3.20
2023-05-07T11:50:32.257Z,2.90
2023-05-07T12:00:37.860Z,5.00
2023-05-07T12:10:46.651Z,3.70
2023-05-07T12:20:52.694Z,4.40
2023-05-07T12:30:58.870Z,1.60
2023-05-07T12:41:04.548Z,4.40
2023-05-07T12:51:12.318Z,3.30
2023-05-07T13:01:20.513Z,2.60
2023-05-07T13:11:26.340Z,2.40
2023-05-07T13:21:32.893Z,3.30
2023-05-07T13:31:38.745Z,3.30
2023-05-07T13:41:44.409Z,4.60
2023-05-07T13:51:50.061Z,3.50
2023-05-07T14:01:55.872Z,1.90
2023-05-07T14:12:02.473Z,5.00
2023-05-07T14:22:08.122Z,2.00
2023-05-07T14:32:14.336Z,2.60
2023-05-07T14:42:20.252Z,3.00
2023-05-07T14:52:27.082Z,3.60
2023-05-07T15:02:32.857Z,1.90
2023-05-07T15:12:38.795Z,2.70
2023-05-07T15:22:44.534Z,2.70
2023-05-07T15:32:50.475Z,3.00
2023-05-07T15:42:57.966Z,4.10
2023-05-07T15:53:04.233Z,3.10
2023-05-07T16:03:10.242Z,1.70
2023-05-07T16:13:19.329Z,3.20
2023-05-07T16:23:25.078Z,4.60
2023-05-07T16:33:30.867Z,4.80
2023-05-07T16:43:36.526Z,3.30
2023-05-07T16:53:42.141Z,3.80
2023-05-07T17:03:48.152Z,4.20
2023-05-07T17:13:53.838Z,5.20
2023-05-07T17:23:59.612Z,4.10
2023-05-07T17:34:05.555Z,3.10
2023-05-07T17:44:11.160Z,2.50
2023-05-07T17:54:17.144Z,3.10
2023-05-07T18:04:24.588Z,5.50
2023-05-07T18:14:30.507Z,3.30
2023-05-07T18:24:36.328Z,3.70
2023-05-07T18:34:42.447Z,7.90
2023-05-07T18:44:48.228Z,6.80
2023-05-07T18:54:53.812Z,7.00
2023-05-07T19:04:59.613Z,7.90
2023-05-07T19:15:06.065Z,10.30
2023-05-07T19:25:13.603Z,7.90
2023-05-07T19:35:19.573Z,8.60
2023-05-07T19:45:25.594Z,15.00
2023-05-07T19:55:31.249Z,12.40
2023-05-07T20:05:37.015Z,12.70
2023-05-07T20:15:43.344Z,11.60
2023-05-07T20:25:50.368Z,13.40
2023-05-07T20:35:58.506Z,18.20
2023-05-07T20:46:05.727Z,13.60
2023-05-07T20:56:11.772Z,11.70
2023-05-07T21:06:17.574Z,13.60
2023-05-07T21:16:23.376Z,10.50
2023-05-07T21:26:29.384Z,22.80
2023-05-07T21:36:35.479Z,20.00
2023-05-07T21:46:41.641Z,17.90
2023-05-07T21:56:49.911Z,16.30
2023-05-07T22:06:56.034Z,15.70
2023-05-07T22:17:01.879Z,17.60
2023-05-07T22:27:07.784Z,19.90
2023-05-07T22:37:13.566Z,15.10
2023-05-07T22:47:19.328Z,10.80
2023-05-07T22:57:25.009Z,9.80
2023-05-07T23:07:31.053Z,7.60
2023-05-07T23:17:36.794Z,6.40
2023-05-07T23:27:42.513Z,7.40
2023-05-07T23:37:48.234Z,8.00
2023-05-07T23:47:53.911Z,7.70
2023-05-07T23:57:59.778Z,6.30
